createdAt,value
2023-01-19T00:00:59.125Z,0.00
2023-01-19T00:01:58.966Z,0.00
2023-01-19T00:02:59.122Z,0.00
2023-01-19T00:03:58.944Z,0.00
2023-01-19T00:04:58.953Z,0.00
2023-01-19T00:05:58.993Z,0.00
2023-01-19T00:06:59.054Z,0.00
2023-01-19T00:07:59.290Z,0.00
2023-01-19T00:08:58.962Z,0.00
2023-01-19T00:09:58.951Z,0.00
2023-01-19T00:10:58.888Z,0.00
2023-01-19T00:11:58.968Z,0.00
2023-01-19T00:12:59.155Z,0.00
2023-01-19T00:13:58.880Z,0.00
2023-01-19T00:14:58.877Z,0.00
2023-01-19T00:15:58.916Z,0.00
2023-01-19T00:16:58.875Z,0.00
2023-01-19T00:17:58.948Z,0.00
2023-01-19T00:18:58.885Z,0.00
2023-01-19T00:19:58.857Z,0.00
2023-01-19T00:20:58.768Z,0.00
2023-01-19T00:21:58.836Z,0.00
2023-01-19T00:22:59.362Z,0.00
2023-01-19T00:23:58.844Z,0.00
2023-01-19T00:24:58.864Z,0.00
2023-01-19T00:25:58.794Z,0.00
2023-01-19T00:26:58.803Z,0.00
2023-01-19T00:28:00.652Z,0.00
2023-01-19T00:28:58.883Z,0.00
2023-01-19T00:29:58.804Z,0.00
2023-01-19T00:30:58.725Z,0.00
2023-01-19T00:31:58.721Z,0.00
2023-01-19T00:32:59.116Z,0.00
2023-01-19T00:33:58.731Z,0.00
2023-01-19T00:34:58.873Z,0.00
2023-01-19T00:35:58.691Z,0.00
2023-01-19T00:36:58.669Z,0.00
2023-01-19T00:37:58.663Z,0.00
2023-01-19T00:38:58.724Z,0.00
2023-01-19T00:39:58.702Z,0.00
2023-01-19T00:40:58.692Z,0.00
2023-01-19T00:41:58.665Z,0.00
2023-01-19T00:42:58.979Z,0.00
2023-01-19T00:43:58.640Z,0.00
2023-01-19T00:44:58.697Z,0.00
2023-01-19T00:45:58.791Z,0.00
2023-01-19T00:46:58.618Z,0.00
2023-01-19T00:47:58.594Z,0.00
2023-01-19T00:48:58.666Z,0.00
2023-01-19T00:49:58.576Z,0.00
2023-01-19T00:50:58.555Z,0.00
2023-01-19T00:51:58.532Z,0.00
2023-01-19T00:52:58.888Z,0.00
2023-01-19T00:53:58.542Z,0.00
2023-01-19T00:54:58.597Z,0.00
2023-01-19T00:55:58.493Z,0.00
2023-01-19T00:56:58.470Z,0.00
2023-01-19T00:57:58.458Z,0.00
2023-01-19T00:58:58.432Z,0.00
2023-01-19T00:59:58.489Z,0.00
2023-01-19T01:00:58.577Z,0.00
2023-01-19T01:01:58.647Z,0.00
2023-01-19T01:02:58.959Z,0.00
2023-01-19T01:03:58.417Z,0.00
2023-01-19T01:04:58.419Z,0.00
2023-01-19T01:05:58.509Z,0.00
2023-01-19T01:06:58.415Z,0.00
2023-01-19T01:07:58.474Z,0.00
2023-01-19T01:08:58.367Z,0.00
2023-01-19T01:09:58.336Z,0.00
2023-01-19T01:10:58.324Z,0.00
2023-01-19T01:11:58.378Z,0.00
2023-01-19T01:12:59.089Z,0.00
2023-01-19T01:13:58.335Z,0.00
2023-01-19T01:14:58.318Z,0.00
2023-01-19T01:15:58.321Z,0.00
2023-01-19T01:16:58.359Z,0.00
2023-01-19T01:17:58.118Z,0.00
2023-01-19T01:18:58.258Z,0.00
2023-01-19T01:19:58.254Z,0.00
2023-01-19T01:20:58.227Z,0.00
2023-01-19T01:21:58.293Z,0.00
2023-01-19T01:22:58.694Z,0.00
2023-01-19T01:23:58.251Z,0.00
2023-01-19T01:24:58.231Z,0.00
2023-01-19T01:25:58.189Z,0.00
2023-01-19T01:26:58.248Z,0.00
2023-01-19T01:27:58.230Z,0.00
2023-01-19T01:28:58.331Z,0.00
2023-01-19T01:29:58.171Z,0.00
2023-01-19T01:30:58.144Z,0.00
2023-01-19T01:31:58.150Z,0.00
2023-01-19T01:32:58.334Z,0.00
2023-01-19T01:33:58.236Z,0.00
2023-01-19T01:34:57.931Z,0.00
2023-01-19T01:35:58.113Z,0.00
2023-01-19T01:36:58.109Z,0.00
2023-01-19T01:37:58.090Z,0.00
2023-01-19T01:38:58.190Z,0.00
2023-01-19T01:39:58.068Z,0.00
2023-01-19T01:40:58.058Z,0.00
2023-01-19T01:41:58.043Z,0.00
2023-01-19T01:42:58.431Z,0.00
2023-01-19T01:43:58.151Z,0.00
2023-01-19T01:44:57.999Z,0.00
2023-01-19T01:45:58.046Z,0.00
2023-01-19T01:46:57.992Z,0.00
2023-01-19T01:47:57.980Z,0.00
2023-01-19T01:48:57.987Z,0.00
2023-01-19T01:49:58.117Z,0.00
2023-01-19T01:50:58.002Z,0.00
2023-01-19T01:51:58.023Z,0.00
2023-01-19T01:53:06.365Z,0.00
2023-01-19T01:53:57.921Z,0.00
2023-01-19T01:54:57.913Z,0.00
2023-01-19T01:55:57.901Z,0.00
2023-01-19T01:56:57.972Z,0.00
2023-01-19T01:57:57.876Z,0.00
2023-01-19T01:58:57.923Z,0.00
2023-01-19T01:59:58.021Z,0.00
2023-01-19T02:00:57.949Z,0.00
2023-01-19T02:01:57.937Z,0.00
2023-01-19T02:02:57.997Z,0.00
2023-01-19T02:03:57.823Z,0.00
2023-01-19T02:04:57.935Z,0.00
2023-01-19T02:05:57.805Z,0.00
2023-01-19T02:06:57.819Z,0.00
2023-01-19T02:07:57.832Z,0.00
2023-01-19T02:08:57.832Z,0.00
2023-01-19T02:09:57.778Z,0.00
2023-01-19T02:10:57.870Z,0.00
2023-01-19T02:11:57.808Z,0.00
2023-01-19T02:12:58.370Z,0.00
2023-01-19T02:13:57.755Z,0.00
2023-01-19T02:14:57.760Z,0.00
2023-01-19T02:15:57.864Z,0.00
2023-01-19T02:16:57.789Z,0.00
2023-01-19T02:17:57.729Z,0.00
2023-01-19T02:18:57.714Z,0.00
2023-01-19T02:19:57.705Z,0.00
2023-01-19T02:20:57.794Z,0.00
2023-01-19T02:21:57.698Z,0.00
2023-01-19T02:22:57.883Z,0.00
2023-01-19T02:23:57.707Z,0.00
2023-01-19T02:24:57.660Z,0.00
2023-01-19T02:25:57.678Z,0.00
2023-01-19T02:26:57.716Z,0.00
2023-01-19T02:27:57.663Z,0.00
2023-01-19T02:28:57.638Z,0.00
2023-01-19T02:29:57.683Z,0.00
2023-01-19T02:30:57.691Z,0.00
2023-01-19T02:31:57.606Z,0.00
2023-01-19T02:32:57.589Z,0.00
2023-01-19T02:33:57.574Z,0.00
2023-01-19T02:34:57.563Z,0.00
2023-01-19T02:35:57.530Z,0.00
2023-01-19T02:36:57.663Z,0.00
2023-01-19T02:37:57.487Z,0.00
2023-01-19T02:38:57.490Z,0.00
2023-01-19T02:39:57.605Z,0.00
2023-01-19T02:40:57.580Z,0.00
2023-01-19T02:41:57.637Z,0.00
2023-01-19T02:42:57.601Z,0.00
2023-01-19T02:43:57.575Z,0.00
2023-01-19T02:44:57.525Z,0.00
2023-01-19T02:45:57.511Z,0.00
2023-01-19T02:46:57.603Z,0.00
2023-01-19T02:47:57.555Z,0.00
2023-01-19T02:48:57.523Z,0.00
2023-01-19T02:49:57.491Z,0.00
2023-01-19T02:50:57.474Z,0.00
2023-01-19T02:51:57.438Z,0.00
2023-01-19T02:52:57.612Z,0.00
2023-01-19T02:53:57.487Z,0.00
2023-01-19T02:54:57.464Z,0.00
2023-01-19T02:55:57.438Z,0.00
2023-01-19T02:56:57.409Z,0.00
2023-01-19T02:57:57.367Z,0.00
2023-01-19T02:58:57.491Z,0.00
2023-01-19T02:59:57.460Z,0.00
2023-01-19T03:00:57.422Z,0.00
2023-01-19T03:01:57.412Z,0.00
2023-01-19T03:02:57.479Z,0.00
2023-01-19T03:03:57.436Z,0.00
2023-01-19T03:04:57.321Z,0.00
2023-01-19T03:05:57.361Z,0.00
2023-01-19T03:06:57.327Z,0.00
2023-01-19T03:07:57.310Z,0.00
2023-01-19T03:08:57.283Z,0.00
2023-01-19T03:09:57.344Z,0.00
2023-01-19T03:10:57.247Z,0.00
2023-01-19T03:11:57.228Z,0.00
2023-01-19T03:12:57.204Z,0.00
2023-01-19T03:13:57.183Z,0.00
2023-01-19T03:14:57.327Z,0.00
2023-01-19T03:15:57.292Z,0.00
2023-01-19T03:16:57.379Z,0.00
2023-01-19T03:17:57.205Z,0.00
2023-01-19T03:18:57.189Z,0.00
2023-01-19T03:19:57.179Z,0.00
2023-01-19T03:20:57.243Z,0.00
2023-01-19T03:21:57.151Z,0.00
2023-01-19T03:22:57.144Z,0.00
2023-01-19T03:23:57.210Z,0.00
2023-01-19T03:24:57.131Z,0.00
2023-01-19T03:25:57.121Z,0.00
2023-01-19T03:26:57.196Z,0.00
2023-01-19T03:27:57.117Z,0.00
2023-01-19T03:28:57.115Z,0.00
2023-01-19T03:29:57.036Z,0.00
2023-01-19T03:30:57.052Z,0.00
2023-01-19T03:31:57.066Z,0.00
2023-01-19T03:32:57.115Z,0.00
2023-01-19T03:33:57.162Z,0.00
2023-01-19T03:34:57.084Z,0.00
2023-01-19T03:35:57.097Z,0.00
2023-01-19T03:36:57.104Z,0.00
2023-01-19T03:37:57.024Z,0.00
2023-01-19T03:38:57.011Z,0.00
2023-01-19T03:39:57.006Z,0.00
2023-01-19T03:40:57.013Z,0.00
2023-01-19T03:41:57.094Z,0.00
2023-01-19T03:42:57.016Z,0.00
2023-01-19T03:43:56.981Z,0.00
2023-01-19T03:44:56.942Z,0.00
2023-01-19T03:45:57.045Z,0.00
2023-01-19T03:46:56.919Z,0.00
2023-01-19T03:47:56.947Z,0.00
2023-01-19T03:48:57.011Z,0.00
2023-01-19T03:49:56.964Z,0.00
2023-01-19T03:50:57.194Z,0.00
2023-01-19T03:51:56.852Z,0.00
2023-01-19T03:52:56.911Z,0.00
2023-01-19T03:53:56.967Z,0.00
2023-01-19T03:54:56.801Z,0.00
2023-01-19T03:55:56.874Z,0.00
2023-01-19T03:56:56.819Z,0.00
2023-01-19T03:57:56.781Z,0.00
2023-01-19T03:58:57.120Z,0.00
2023-01-19T03:59:56.826Z,0.00
2023-01-19T04:00:56.949Z,0.00
2023-01-19T04:01:56.869Z,0.00
2023-01-19T04:02:56.869Z,0.00
2023-01-19T04:03:56.898Z,0.00
2023-01-19T04:04:56.791Z,0.00
2023-01-19T04:05:56.848Z,0.00
2023-01-19T04:06:56.743Z,0.00
2023-01-19T04:07:56.732Z,0.00
2023-01-19T04:08:56.717Z,0.00
2023-01-19T04:09:56.769Z,0.00
2023-01-19T04:10:56.838Z,0.00
2023-01-19T04:11:56.731Z,0.00
2023-01-19T04:12:56.712Z,0.00
2023-01-19T04:13:56.738Z,0.00
2023-01-19T04:14:56.718Z,0.00
2023-01-19T04:15:56.648Z,0.00
2023-01-19T04:16:56.482Z,0.00
2023-01-19T04:17:56.649Z,0.00
2023-01-19T04:18:56.638Z,0.00
2023-01-19T04:19:56.606Z,0.00
2023-01-19T04:20:56.550Z,0.00
2023-01-19T04:21:56.509Z,0.00
2023-01-19T04:22:56.421Z,0.00
2023-01-19T04:23:56.517Z,0.00
2023-01-19T04:24:56.585Z,0.00
2023-01-19T04:25:56.591Z,0.00
2023-01-19T04:26:56.671Z,0.00
2023-01-19T04:27:56.600Z,0.00
2023-01-19T04:28:56.566Z,0.00
2023-01-19T04:29:56.571Z,0.00
2023-01-19T04:30:56.727Z,0.00
2023-01-19T04:31:56.312Z,0.00
2023-01-19T04:32:56.565Z,0.00
2023-01-19T04:33:56.567Z,0.00
2023-01-19T04:34:56.493Z,0.00
2023-01-19T04:35:56.518Z,0.00
2023-01-19T04:36:56.573Z,0.00
2023-01-19T04:37:56.487Z,0.00
2023-01-19T04:38:56.577Z,0.00
2023-01-19T04:39:56.425Z,0.00
2023-01-19T04:40:56.425Z,0.00
2023-01-19T04:41:56.432Z,0.00
2023-01-19T04:42:56.453Z,0.00
2023-01-19T04:43:56.480Z,0.00
2023-01-19T04:44:56.483Z,0.00
2023-01-19T04:45:56.398Z,0.00
2023-01-19T04:46:56.393Z,0.00
2023-01-19T04:47:56.389Z,0.00
2023-01-19T04:48:56.387Z,0.00
2023-01-19T04:49:56.380Z,0.00
2023-01-19T04:50:56.453Z,0.00
2023-01-19T04:51:56.227Z,0.00
2023-01-19T04:52:56.230Z,0.00
2023-01-19T04:53:56.403Z,0.00
2023-01-19T04:54:56.250Z,0.00
2023-01-19T04:55:56.258Z,0.00
2023-01-19T04:56:56.259Z,0.00
2023-01-19T04:57:56.251Z,0.00
2023-01-19T04:58:56.234Z,0.00
2023-01-19T04:59:56.050Z,0.00
2023-01-19T05:00:56.209Z,0.00
2023-01-19T05:01:56.071Z,0.00
2023-01-19T05:02:56.048Z,1.00
2023-01-19T05:03:56.248Z,0.00
2023-01-19T05:04:56.303Z,0.00
2023-01-19T05:05:55.969Z,0.00
2023-01-19T05:06:56.129Z,1.00
2023-01-19T05:07:56.148Z,0.00
2023-01-19T05:08:55.933Z,0.00
2023-01-19T05:09:56.232Z,0.00
2023-01-19T05:10:56.171Z,0.00
2023-01-19T05:11:56.123Z,0.00
2023-01-19T05:12:56.125Z,0.00
2023-01-19T05:13:55.915Z,0.00
2023-01-19T05:14:56.139Z,0.00
2023-01-19T05:15:56.010Z,0.00
2023-01-19T05:16:56.099Z,0.00
2023-01-19T05:17:56.148Z,0.00
2023-01-19T05:18:56.057Z,0.00
2023-01-19T05:19:56.064Z,0.00
2023-01-19T05:20:56.087Z,1.00
2023-01-19T05:21:55.945Z,0.00
2023-01-19T05:22:56.113Z,0.00
2023-01-19T05:23:56.122Z,0.00
2023-01-19T05:24:55.980Z,0.00
2023-01-19T05:25:55.986Z,0.00
2023-01-19T05:26:56.001Z,1.00
2023-01-19T05:27:56.014Z,0.00
2023-01-19T05:28:55.993Z,0.00
2023-01-19T05:29:55.857Z,0.00
2023-01-19T05:30:55.995Z,0.00
2023-01-19T05:31:56.027Z,0.00
2023-01-19T05:32:55.965Z,0.00
2023-01-19T05:33:55.837Z,0.00
2023-01-19T05:34:55.844Z,0.00
2023-01-19T05:35:55.868Z,0.00
2023-01-19T05:36:55.868Z,0.00
2023-01-19T05:37:55.890Z,0.00
2023-01-19T05:38:55.599Z,1.00
2023-01-19T05:39:55.846Z,0.00
2023-01-19T05:40:55.859Z,0.00
2023-01-19T05:41:55.812Z,0.00
2023-01-19T05:42:55.677Z,0.00
2023-01-19T05:43:55.583Z,1.00
2023-01-19T05:44:55.711Z,0.00
2023-01-19T05:45:55.558Z,0.00
2023-01-19T05:46:55.848Z,0.00
2023-01-19T05:47:55.586Z,0.00
2023-01-19T05:48:55.685Z,1.00
2023-01-19T05:49:55.525Z,0.00
2023-01-19T05:50:55.689Z,0.00
2023-01-19T05:51:55.519Z,0.00
2023-01-19T05:52:55.525Z,0.00
2023-01-19T05:53:55.769Z,0.00
2023-01-19T05:54:55.540Z,0.00
2023-01-19T05:55:55.706Z,0.00
2023-01-19T05:56:55.516Z,0.00
2023-01-19T05:57:55.605Z,0.00
2023-01-19T05:58:55.486Z,0.00
2023-01-19T05:59:55.714Z,0.00
2023-01-19T06:00:55.594Z,0.00
2023-01-19T06:01:55.689Z,0.00
2023-01-19T06:02:55.700Z,0.00
2023-01-19T06:03:55.578Z,0.00
2023-01-19T06:04:55.559Z,0.00
2023-01-19T06:05:55.516Z,0.00
2023-01-19T06:06:55.582Z,0.00
2023-01-19T06:07:55.495Z,1.00
2023-01-19T06:08:55.511Z,0.00
2023-01-19T06:09:55.531Z,0.00
2023-01-19T06:10:55.561Z,0.00
2023-01-19T06:11:55.499Z,1.00
2023-01-19T06:12:55.527Z,0.00
2023-01-19T06:13:55.463Z,0.00
2023-01-19T06:14:55.345Z,0.00
2023-01-19T06:15:55.584Z,0.00
2023-01-19T06:16:55.607Z,0.00
2023-01-19T06:17:55.522Z,0.00
2023-01-19T06:18:55.449Z,0.00
2023-01-19T06:19:55.469Z,0.00
2023-01-19T06:20:55.484Z,0.00
2023-01-19T06:21:55.510Z,0.00
2023-01-19T06:22:55.440Z,0.00
2023-01-19T06:23:55.457Z,0.00
2023-01-19T06:24:55.389Z,0.00
2023-01-19T06:25:55.407Z,0.00
2023-01-19T06:26:55.466Z,0.00
2023-01-19T06:27:55.371Z,0.00
2023-01-19T06:28:55.363Z,1.00
2023-01-19T06:29:55.353Z,0.00
2023-01-19T06:30:55.439Z,0.00
2023-01-19T06:31:55.499Z,0.00
2023-01-19T06:32:55.312Z,0.00
2023-01-19T06:33:55.329Z,0.00
2023-01-19T06:34:55.352Z,0.00
2023-01-19T06:35:55.309Z,1.00
2023-01-19T06:36:55.200Z,0.00
2023-01-19T06:37:55.231Z,0.00
2023-01-19T06:38:55.283Z,0.00
2023-01-19T06:39:55.327Z,0.00
2023-01-19T06:40:55.262Z,0.00
2023-01-19T06:41:55.210Z,0.00
2023-01-19T06:42:55.172Z,0.00
2023-01-19T06:43:55.126Z,1.00
2023-01-19T06:44:55.244Z,0.00
2023-01-19T06:45:55.313Z,0.00
2023-01-19T06:47:15.433Z,0.00
2023-01-19T06:47:55.260Z,0.00
2023-01-19T06:48:55.201Z,0.00
2023-01-19T06:49:55.206Z,0.00
2023-01-19T06:50:56.206Z,1.00
2023-01-19T06:51:55.146Z,1.00
2023-01-19T06:52:55.185Z,1.00
2023-01-19T06:53:55.089Z,1.00
2023-01-19T06:54:55.512Z,1.00
2023-01-19T06:55:55.180Z,1.00
2023-01-19T06:56:55.151Z,2.00
2023-01-19T06:57:55.067Z,2.00
2023-01-19T06:58:55.139Z,1.00
2023-01-19T06:59:55.051Z,2.00
2023-01-19T07:00:55.132Z,1.00
2023-01-19T07:01:55.189Z,6.00
2023-01-19T07:02:55.023Z,5.00
2023-01-19T07:03:55.081Z,9.00
2023-01-19T07:04:55.001Z,5.00
2023-01-19T07:05:54.966Z,2.00
2023-01-19T07:06:54.954Z,8.00
2023-01-19T07:07:54.977Z,10.00
2023-01-19T07:08:54.956Z,10.00
2023-01-19T07:09:55.035Z,13.00
2023-01-19T07:11:25.006Z,17.00
2023-01-19T07:11:54.946Z,18.00
2023-01-19T07:12:54.884Z,23.00
2023-01-19T07:13:54.899Z,19.00
2023-01-19T07:14:54.886Z,15.00
2023-01-19T07:15:54.978Z,17.00
2023-01-19T07:16:54.865Z,22.00
2023-01-19T07:17:54.830Z,29.00
2023-01-19T07:18:54.832Z,31.00
2023-01-19T07:19:54.922Z,36.00
2023-01-19T07:20:54.835Z,40.00
2023-01-19T07:21:54.831Z,44.00
2023-01-19T07:22:54.836Z,43.00
2023-01-19T07:23:54.752Z,49.00
2023-01-19T07:24:54.836Z,58.00
2023-01-19T07:25:54.759Z,67.00
2023-01-19T07:26:54.754Z,70.00
2023-01-19T07:27:54.771Z,73.00
2023-01-19T07:28:54.772Z,83.00
2023-01-19T07:29:54.774Z,86.00
2023-01-19T07:30:54.794Z,84.00
2023-01-19T07:31:54.806Z,91.00
2023-01-19T07:32:54.707Z,101.00
2023-01-19T07:33:54.709Z,109.00
2023-01-19T07:34:54.794Z,111.00
2023-01-19T07:35:54.717Z,116.00
2023-01-19T07:36:54.714Z,130.00
2023-01-19T07:37:54.648Z,144.00
2023-01-19T07:38:54.630Z,149.00
2023-01-19T07:39:54.613Z,153.00
2023-01-19T07:40:54.599Z,157.00
2023-01-19T07:41:54.669Z,178.00
2023-01-19T07:42:54.582Z,189.00
2023-01-19T07:43:54.582Z,200.00
2023-01-19T07:44:54.556Z,194.00
2023-01-19T07:45:54.650Z,187.00
2023-01-19T07:46:54.674Z,188.00
2023-01-19T07:47:54.597Z,201.00
2023-01-19T07:48:54.582Z,203.00
2023-01-19T07:49:54.591Z,209.00
2023-01-19T07:50:54.561Z,216.00
2023-01-19T07:51:54.629Z,231.00
2023-01-19T07:52:54.613Z,242.00
2023-01-19T07:53:54.518Z,245.00
2023-01-19T07:54:54.507Z,252.00
2023-01-19T07:55:54.494Z,255.00
2023-01-19T07:56:54.473Z,271.00
2023-01-19T07:57:54.536Z,284.00
2023-01-19T07:58:54.434Z,289.00
2023-01-19T07:59:54.408Z,291.00
2023-01-19T08:00:54.480Z,294.00
2023-01-19T08:01:54.475Z,295.00
2023-01-19T08:02:54.416Z,308.00
2023-01-19T08:03:54.483Z,318.00
2023-01-19T08:04:54.430Z,318.00
2023-01-19T08:05:54.405Z,331.00
2023-01-19T08:06:54.393Z,356.00
2023-01-19T08:07:54.381Z,375.00
2023-01-19T08:08:54.449Z,383.00
2023-01-19T08:09:54.437Z,382.00
2023-01-19T08:10:54.347Z,375.00
2023-01-19T08:11:54.429Z,372.00
2023-01-19T08:12:54.345Z,364.00
2023-01-19T08:13:54.170Z,365.00
2023-01-19T08:14:54.393Z,368.00
2023-01-19T08:15:54.400Z,366.00
2023-01-19T08:16:54.319Z,368.00
2023-01-19T08:17:54.300Z,369.00
2023-01-19T08:18:54.375Z,374.00
2023-01-19T08:19:54.283Z,389.00
2023-01-19T08:20:54.275Z,398.00
2023-01-19T08:21:54.257Z,412.00
2023-01-19T08:22:54.248Z,411.00
2023-01-19T08:23:54.412Z,409.00
2023-01-19T08:24:54.239Z,417.00
2023-01-19T08:25:54.241Z,428.00
2023-01-19T08:26:54.215Z,441.00
2023-01-19T08:27:54.194Z,465.00
2023-01-19T08:28:54.248Z,477.00
2023-01-19T08:29:54.143Z,473.00
2023-01-19T08:30:54.369Z,471.00
2023-01-19T08:31:54.186Z,481.00
2023-01-19T08:32:54.121Z,505.00
2023-01-19T08:33:54.187Z,540.00
2023-01-19T08:34:54.244Z,597.00
2023-01-19T08:35:54.180Z,641.00
2023-01-19T08:36:54.094Z,670.00
2023-01-19T08:37:54.074Z,728.00
2023-01-19T08:38:54.067Z,798.00
2023-01-19T08:39:54.128Z,877.00
2023-01-19T08:40:54.037Z,931.00
2023-01-19T08:41:54.020Z,1022.00
2023-01-19T08:42:54.001Z,1124.00
2023-01-19T08:43:54.074Z,1255.00
2023-01-19T08:44:58.094Z,1249.00
2023-01-19T08:45:54.110Z,1341.00
2023-01-19T08:46:54.093Z,1425.00
2023-01-19T08:47:53.988Z,1501.00
2023-01-19T08:48:53.962Z,1541.00
2023-01-19T08:49:54.020Z,1658.00
2023-01-19T08:50:54.072Z,1736.00
2023-01-19T08:51:53.977Z,1894.00
2023-01-19T08:52:53.925Z,1945.00
2023-01-19T08:53:53.967Z,1851.00
2023-01-19T08:54:53.931Z,1763.00
2023-01-19T08:55:53.896Z,1814.00
2023-01-19T08:56:54.018Z,1909.00
2023-01-19T08:57:53.894Z,1906.00
2023-01-19T08:59:08.100Z,1982.00
2023-01-19T08:59:53.880Z,2092.00
2023-01-19T09:00:53.917Z,2128.00
2023-01-19T09:01:53.991Z,2204.00
2023-01-19T09:02:53.894Z,2183.00
2023-01-19T09:03:53.820Z,2207.00
2023-01-19T09:04:53.943Z,2158.00
2023-01-19T09:05:53.798Z,2095.00
2023-01-19T09:06:53.889Z,2048.00
2023-01-19T09:07:53.826Z,1930.00
2023-01-19T09:08:53.770Z,1891.00
2023-01-19T09:09:53.784Z,1847.00
2023-01-19T09:10:53.872Z,1850.00
2023-01-19T09:11:53.714Z,1924.00
2023-01-19T09:12:53.782Z,1913.00
2023-01-19T09:13:53.696Z,1904.00
2023-01-19T09:14:53.694Z,1881.00
2023-01-19T09:15:53.679Z,1894.00
2023-01-19T09:16:53.681Z,1970.00
2023-01-19T09:17:53.759Z,1986.00
2023-01-19T09:18:53.669Z,2111.00
2023-01-19T09:19:53.656Z,2186.00
2023-01-19T09:20:53.642Z,2243.00
2023-01-19T09:21:53.612Z,2423.00
2023-01-19T09:22:53.733Z,2483.00
2023-01-19T09:23:53.606Z,2380.00
2023-01-19T09:24:53.649Z,2326.00
2023-01-19T09:25:53.591Z,2120.00
2023-01-19T09:26:53.706Z,2047.00
2023-01-19T09:27:53.575Z,2040.00
2023-01-19T09:28:53.530Z,2044.00
2023-01-19T09:29:53.579Z,2067.00
2023-01-19T09:30:53.725Z,2112.00
2023-01-19T09:31:53.586Z,2170.00
2023-01-19T09:32:53.599Z,2327.00
2023-01-19T09:33:53.502Z,2393.00
2023-01-19T09:34:53.491Z,2239.00
2023-01-19T09:35:53.465Z,2194.00
2023-01-19T09:36:53.452Z,2136.00
2023-01-19T09:37:53.588Z,2249.00
2023-01-19T09:38:53.492Z,2176.00
2023-01-19T09:39:53.598Z,2163.00
2023-01-19T09:40:53.453Z,2239.00
2023-01-19T09:41:53.420Z,2280.00
2023-01-19T09:42:53.474Z,2062.00
2023-01-19T09:43:53.445Z,2029.00
2023-01-19T09:44:53.342Z,1950.00
2023-01-19T09:45:53.324Z,1950.00
2023-01-19T09:46:53.308Z,1925.00
2023-01-19T09:47:53.291Z,1859.00
2023-01-19T09:48:53.360Z,1766.00
2023-01-19T09:49:53.347Z,1651.00
2023-01-19T09:50:53.322Z,1529.00
2023-01-19T09:51:53.302Z,1380.00
2023-01-19T09:52:53.277Z,1308.00
2023-01-19T09:53:53.508Z,1410.00
2023-01-19T09:54:53.315Z,1502.00
2023-01-19T09:55:53.275Z,1608.00
2023-01-19T09:56:53.348Z,1727.00
2023-01-19T09:57:53.235Z,1798.00
2023-01-19T09:58:53.233Z,1812.00
2023-01-19T09:59:53.297Z,1791.00
2023-01-19T10:00:53.389Z,1938.00
2023-01-19T10:01:53.243Z,1933.00
2023-01-19T10:02:53.306Z,1887.00
2023-01-19T10:03:53.204Z,1969.00
2023-01-19T10:04:53.267Z,1786.00
2023-01-19T10:05:53.121Z,2192.00
2023-01-19T10:06:53.196Z,2263.00
2023-01-19T10:07:53.128Z,1883.00
2023-01-19T10:08:53.098Z,1791.00
2023-01-19T10:09:53.076Z,1652.00
2023-01-19T10:10:53.074Z,1727.00
2023-01-19T10:11:53.652Z,1931.00
2023-01-19T10:12:53.087Z,2069.00
2023-01-19T10:13:53.089Z,2142.00
2023-01-19T10:14:53.075Z,2094.00
2023-01-19T10:15:53.133Z,2254.00
2023-01-19T10:16:53.104Z,2239.00
2023-01-19T10:17:53.098Z,2238.00
2023-01-19T10:18:53.115Z,1965.00
2023-01-19T10:19:53.051Z,1677.00
2023-01-19T10:20:53.057Z,1567.00
2023-01-19T10:21:52.979Z,1460.00
2023-01-19T10:22:53.055Z,1352.00
2023-01-19T10:23:52.989Z,1262.00
2023-01-19T10:24:52.988Z,1188.00
2023-01-19T10:25:53.087Z,1262.00
2023-01-19T10:26:52.962Z,1180.00
2023-01-19T10:27:52.935Z,1220.00
2023-01-19T10:28:52.955Z,1244.00
2023-01-19T10:29:52.957Z,1240.00
2023-01-19T10:30:52.979Z,1276.00
2023-01-19T10:31:52.989Z,1303.00
2023-01-19T10:32:52.871Z,1197.00
2023-01-19T10:33:52.859Z,1248.00
2023-01-19T10:34:52.881Z,1338.00
2023-01-19T10:35:52.875Z,1699.00
2023-01-19T10:36:52.956Z,2009.00
2023-01-19T10:37:52.863Z,1900.00
2023-01-19T10:38:52.905Z,1389.00
2023-01-19T10:39:52.844Z,2343.00
2023-01-19T10:40:52.817Z,2206.00
2023-01-19T10:41:52.852Z,2493.00
2023-01-19T10:42:52.958Z,2179.00
2023-01-19T10:43:52.789Z,2413.00
2023-01-19T10:44:52.813Z,2100.00
2023-01-19T10:45:52.822Z,1938.00
2023-01-19T10:46:52.774Z,1845.00
2023-01-19T10:47:52.784Z,2258.00
2023-01-19T10:48:52.824Z,2336.00
2023-01-19T10:49:52.730Z,3353.00
2023-01-19T10:50:52.781Z,3573.00
2023-01-19T10:51:52.730Z,3392.00
2023-01-19T10:52:52.767Z,3171.00
2023-01-19T10:53:52.714Z,2400.00
2023-01-19T10:54:52.683Z,1776.00
2023-01-19T10:55:52.674Z,1449.00
2023-01-19T10:56:52.701Z,1275.00
2023-01-19T10:57:52.684Z,1033.00
2023-01-19T10:58:52.700Z,864.00
2023-01-19T10:59:52.622Z,811.00
2023-01-19T11:00:52.779Z,758.00
2023-01-19T11:01:52.756Z,602.00
2023-01-19T11:02:52.759Z,466.00
2023-01-19T11:03:52.761Z,417.00
2023-01-19T11:04:52.546Z,412.00
2023-01-19T11:05:52.575Z,437.00
2023-01-19T11:06:52.509Z,469.00
2023-01-19T11:07:52.539Z,487.00
2023-01-19T11:08:52.563Z,535.00
2023-01-19T11:09:52.516Z,543.00
2023-01-19T11:10:52.398Z,582.00
2023-01-19T11:11:52.435Z,623.00
2023-01-19T11:12:52.435Z,692.00
2023-01-19T11:13:52.466Z,736.00
2023-01-19T11:14:52.465Z,825.00
2023-01-19T11:15:52.471Z,843.00
2023-01-19T11:16:52.381Z,951.00
2023-01-19T11:17:52.342Z,1111.00
2023-01-19T11:18:52.368Z,1190.00
2023-01-19T11:19:52.395Z,1289.00
2023-01-19T11:20:52.415Z,1354.00
2023-01-19T11:21:52.362Z,1472.00
2023-01-19T11:22:52.374Z,1677.00
2023-01-19T11:23:52.310Z,1708.00
2023-01-19T11:24:52.399Z,1680.00
2023-01-19T11:25:52.317Z,1565.00
2023-01-19T11:26:52.331Z,1462.00
2023-01-19T11:27:52.325Z,1400.00
2023-01-19T11:28:52.329Z,1448.00
2023-01-19T11:29:52.322Z,1509.00
2023-01-19T11:30:52.415Z,1329.00
2023-01-19T11:31:52.397Z,1100.00
2023-01-19T11:32:52.281Z,937.00
2023-01-19T11:33:52.262Z,814.00
2023-01-19T11:34:52.310Z,742.00
2023-01-19T11:35:52.207Z,701.00
2023-01-19T11:36:52.265Z,652.00
2023-01-19T11:37:52.176Z,607.00
2023-01-19T11:38:52.153Z,572.00
2023-01-19T11:39:52.217Z,555.00
2023-01-19T11:40:52.095Z,542.00
2023-01-19T11:41:52.157Z,569.00
2023-01-19T11:42:52.212Z,615.00
2023-01-19T11:43:52.123Z,587.00
2023-01-19T11:44:52.055Z,640.00
2023-01-19T11:45:52.087Z,690.00
2023-01-19T11:46:52.066Z,720.00
2023-01-19T11:47:52.148Z,886.00
2023-01-19T11:48:52.118Z,1007.00
2023-01-19T11:49:52.011Z,1127.00
2023-01-19T11:50:51.987Z,1286.00
2023-01-19T11:51:52.039Z,1339.00
2023-01-19T11:52:52.100Z,1551.00
2023-01-19T11:53:51.979Z,1730.00
2023-01-19T11:54:51.940Z,1770.00
2023-01-19T11:55:52.006Z,1650.00
2023-01-19T11:56:52.084Z,1585.00
2023-01-19T11:57:54.279Z,2100.00
2023-01-19T11:58:52.037Z,2601.00
2023-01-19T11:59:54.853Z,2822.00
2023-01-19T12:00:51.982Z,2655.00
2023-01-19T12:01:51.947Z,2357.00
2023-01-19T12:02:51.890Z,2039.00
2023-01-19T12:03:54.632Z,1686.00
2023-01-19T12:04:51.875Z,2051.00
2023-01-19T12:05:51.827Z,2214.00
2023-01-19T12:06:51.851Z,2165.00
2023-01-19T12:07:51.860Z,2032.00
2023-01-19T12:08:51.877Z,1837.00
2023-01-19T12:09:51.811Z,1537.00
2023-01-19T12:10:51.813Z,1703.00
2023-01-19T12:11:51.811Z,1943.00
2023-01-19T12:12:51.813Z,2552.00
2023-01-19T12:13:53.752Z,2365.00
2023-01-19T12:14:51.892Z,2548.00
2023-01-19T12:15:51.812Z,2606.00
2023-01-19T12:16:51.850Z,2431.00
2023-01-19T12:17:51.834Z,2199.00
2023-01-19T12:18:51.768Z,2345.00
2023-01-19T12:19:54.596Z,2400.00
2023-01-19T12:20:51.851Z,2173.00
2023-01-19T12:21:51.839Z,1794.00
2023-01-19T12:22:51.740Z,1644.00
2023-01-19T12:23:51.730Z,2368.00
2023-01-19T12:24:51.814Z,2772.00
2023-01-19T12:25:54.649Z,2424.00
2023-01-19T12:26:51.654Z,2044.00
2023-01-19T12:27:51.720Z,1844.00
2023-01-19T12:28:51.703Z,1930.00
2023-01-19T12:29:51.441Z,1921.00
2023-01-19T12:30:51.927Z,1835.00
2023-01-19T12:31:51.923Z,2327.00
2023-01-19T12:32:51.437Z,2501.00
2023-01-19T12:33:51.603Z,2876.00
2023-01-19T12:34:51.640Z,2747.00
2023-01-19T12:35:51.574Z,2656.00
2023-01-19T12:36:51.663Z,2355.00
2023-01-19T12:37:51.579Z,2268.00
2023-01-19T12:38:51.579Z,2250.00
2023-01-19T12:39:51.563Z,2224.00
2023-01-19T12:40:51.557Z,2769.00
2023-01-19T12:41:51.471Z,2603.00
2023-01-19T12:42:51.630Z,3024.00
2023-01-19T12:43:51.556Z,2752.00
2023-01-19T12:44:51.296Z,3320.00
2023-01-19T12:45:51.581Z,3135.00
2023-01-19T12:46:51.540Z,3604.00
2023-01-19T12:47:52.902Z,3383.00
2023-01-19T12:48:51.462Z,3594.00
2023-01-19T12:49:51.538Z,3536.00